Time,TemperatureF,DewpointF,PressureIn,WindDirection,WindDirectionDegrees,WindSpeedMPH,WindSpeedGustMPH,Humidity,HourlyPrecipIn,Conditions,Clouds,dailyrainin,SoftwareType,DateUTC
2013-12-05 00:01:00,64.4,64.0,30.02,West,280,0.0,6.0,98,0.00,,,0.00,weatherlink.com 1.10,2013-12-05 06:01:00,
2013-12-05 00:16:00,64.4,64.0,30.01,SW,215,1.0,4.0,98,0.00,,,0.00,weatherlink.com 1.10,2013-12-05 06:16:00,
2013-12-05 00:31:00,64.5,64.0,30.02,South,176,2.0,4.0,98,0.00,,,0.00,weatherlink.com 1.10,2013-12-05 06:31:00,
2013-12-05 00:46:00,64.6,64.0,30.02,WSW,248,0.0,7.0,99,0.00,,,0.00,weatherlink.com 1.10,2013-12-05 06:46:00,
2013-12-05 01:01:00,64.5,64.0,30.02,ESE,117,0.0,3.0,99,0.00,,,0.00,weatherlink.com 1.10,2013-12-05 07:01:00,
2013-12-05 01:16:00,64.6,64.0,30.01,SW,215,0.0,3.0,99,0.00,,,0.00,weatherlink.com 1.10,2013-12-05 07:16:00,
2013-12-05 01:31:00,64.7,64.0,30.01,SSE,163,0.0,2.0,99,0.00,,,0.00,weatherlink.com 1.10,2013-12-05 07:31:00,
2013-12-05 01:46:00,64.8,65.0,30.01,SSW,203,0.0,3.0,99,0.00,,,0.00,weatherlink.com 1.10,2013-12-05 07:46:00,
2013-12-05 02:01:00,64.9,65.0,30.00,South,171,0.0,7.0,99,0.00,,,0.00,weatherlink.com 1.10,2013-12-05 08:01:00,
2013-12-05 02:16:00,64.9,65.0,30.01,SW,214,0.0,3.0,99,0.00,,,0.00,weatherlink.com 1.10,2013-12-05 08:16:00,
2013-12-05 02:31:00,64.9,65.0,30.01,SW,219,1.0,5.0,99,0.00,,,0.00,weatherlink.com 1.10,2013-12-05 08:31:00,
2013-12-05 02:46:00,65.0,65.0,30.01,WSW,246,1.0,2.0,99,0.00,,,0.00,weatherlink.com 1.10,2013-12-05 08:46:00,
2013-12-05 03:01:00,65.0,65.0,30.00,SE,138,2.0,3.0,99,0.00,,,0.00,weatherlink.com 1.10,2013-12-05 09:01:00,
2013-12-05 03:16:00,65.1,65.0,30.00,SE,141,3.0,8.0,99,0.00,,,0.00,weatherlink.com 1.10,2013-12-05 09:16:00,
2013-12-05 03:31:00,65.1,65.0,30.00,SE,146,0.0,5.0,99,0.00,,,0.00,weatherlink.com 1.10,2013-12-05 09:31:00,
2013-12-05 03:46:00,65.0,65.0,30.00,SW,233,1.0,6.0,99,0.00,,,0.00,weatherlink.com 1.10,2013-12-05 09:46:00,
2013-12-05 04:01:00,65.0,65.0,30.00,SW,214,0.0,5.0,99,0.00,,,0.00,weatherlink.com 1.10,2013-12-05 10:01:00,
2013-12-05 04:16:00,65.0,65.0,30.00,South,184,2.0,3.0,99,0.00,,,0.00,weatherlink.com 1.10,2013-12-05 10:16:00,
2013-12-05 04:31:00,65.1,65.0,30.01,SSW,205,0.0,4.0,99,0.00,,,0.00,weatherlink.com 1.10,2013-12-05 10:31:00,
2013-12-05 04:46:00,65.1,65.0,30.01,SSW,204,1.0,4.0,99,0.00,,,0.00,weatherlink.com 1.10,2013-12-05 10:46:00,
2013-12-05 05:01:00,65.2,65.0,30.02,SW,219,0.0,4.0,99,0.00,,,0.00,weatherlink.com 1.10,2013-12-05 11:01:00,
2013-12-05 05:16:00,65.2,65.0,30.02,SE,139,2.0,6.0,99,0.00,,,0.00,weatherlink.com 1.10,2013-12-05 11:16:00,
2013-12-05 05:31:00,65.2,65.0,30.03,SSW,205,0.0,4.0,99,0.00,,,0.00,weatherlink.com 1.10,2013-12-05 11:31:00,
2013-12-05 05:46:00,65.3,65.0,30.03,SW,218,1.0,4.0,99,0.00,,,0.00,weatherlink.com 1.10,2013-12-05 11:46:00,
2013-12-05 06:01:00,65.3,65.0,30.03,South,172,1.0,3.0,99,0.00,,,0.00,weatherlink.com 1.10,2013-12-05 12:01:00,
2013-12-05 06:16:00,65.2,65.0,30.04,SSE,168,1.0,2.0,99,0.00,,,0.00,weatherlink.com 1.10,2013-12-05 12:16:00,
2013-12-05 06:31:00,65.2,65.0,30.04,SE,135,0.0,2.0,99,0.00,,,0.00,weatherlink.com 1.10,2013-12-05 12:31:00,
2013-12-05 06:46:00,65.2,65.0,30.04,SSE,155,5.0,5.0,99,0.00,,,0.00,weatherlink.com 1.10,2013-12-05 12:46:00,
2013-12-05 07:01:00,65.4,65.0,30.04,SSW,212,1.0,4.0,99,0.00,,,0.00,weatherlink.com 1.10,2013-12-05 13:01:00,
2013-12-05 07:16:00,65.5,65.0,30.05,SSW,210,2.0,4.0,99,0.00,,,0.00,weatherlink.com 1.10,2013-12-05 13:16:00,
2013-12-05 07:31:00,65.6,65.0,30.05,SSE,166,1.0,5.0,99,0.00,,,0.00,weatherlink.com 1.10,2013-12-05 13:31:00,
2013-12-05 07:46:00,65.8,66.0,30.05,South,174,0.0,3.0,99,0.00,,,0.00,weatherlink.com 1.10,2013-12-05 13:46:00,
2013-12-05 08:01:00,65.9,66.0,30.06,WSW,238,0.0,6.0,99,0.00,,,0.00,weatherlink.com 1.10,2013-12-05 14:01:00,
2013-12-05 08:16:00,65.9,66.0,30.06,SE,127,1.0,7.0,99,0.01,,,0.01,weatherlink.com 1.10,2013-12-05 14:16:00,
2013-12-05 08:31:00,66.0,66.0,30.07,South,191,3.0,5.0,99,0.01,,,0.01,weatherlink.com 1.10,2013-12-05 14:31:00,
2013-12-05 08:46:00,66.2,66.0,30.07,SSW,203,0.0,3.0,99,0.01,,,0.01,weatherlink.com 1.10,2013-12-05 14:46:00,
2013-12-05 09:02:00,66.6,66.0,30.06,SSW,194,1.0,3.0,99,0.01,,,0.01,weatherlink.com 1.10,2013-12-05 15:02:00,
2013-12-05 09:17:00,66.8,67.0,30.06,South,181,0.0,4.0,99,0.00,,,0.01,weatherlink.com 1.10,2013-12-05 15:17:00,
2013-12-05 09:32:00,66.9,67.0,30.06,WSW,239,0.0,4.0,99,0.00,,,0.01,weatherlink.com 1.10,2013-12-05 15:32:00,
2013-12-05 09:47:00,67.0,67.0,30.07,SE,143,1.0,5.0,99,0.00,,,0.01,weatherlink.com 1.10,2013-12-05 15:47:00,
2013-12-05 10:02:00,67.3,67.0,30.06,SSW,205,1.0,5.0,99,0.00,,,0.01,weatherlink.com 1.10,2013-12-05 16:02:00,
2013-12-05 10:17:00,67.7,67.0,30.06,West,259,0.0,5.0,99,0.00,,,0.01,weatherlink.com 1.10,2013-12-05 16:17:00,
2013-12-05 10:32:00,68.0,68.0,30.06,South,176,1.0,4.0,99,0.00,,,0.01,weatherlink.com 1.10,2013-12-05 16:32:00,
2013-12-05 10:47:00,68.3,68.0,30.05,South,172,0.0,4.0,98,0.00,,,0.01,weatherlink.com 1.10,2013-12-05 16:47:00,
2013-12-05 11:02:00,69.1,69.0,30.04,SSW,194,3.0,5.0,98,0.00,,,0.01,weatherlink.com 1.10,2013-12-05 17:02:00,
2013-12-05 11:17:00,69.8,69.0,30.03,ESE,108,1.0,5.0,96,0.00,,,0.01,weatherlink.com 1.10,2013-12-05 17:17:00,
2013-12-05 11:32:00,70.8,69.0,30.02,WSW,255,2.0,5.0,95,0.00,,,0.01,weatherlink.com 1.10,2013-12-05 17:32:00,
2013-12-05 11:47:00,71.6,69.0,30.01,SE,144,0.0,6.0,91,0.00,,,0.01,weatherlink.com 1.10,2013-12-05 17:47:00,
2013-12-05 12:02:00,71.7,69.0,30.00,SSE,167,5.0,6.0,91,0.00,,,0.01,weatherlink.com 1.10,2013-12-05 18:02:00,
2013-12-05 12:17:00,71.9,69.0,29.99,SSE,165,1.0,5.0,90,0.00,,,0.01,weatherlink.com 1.10,2013-12-05 18:17:00,
2013-12-05 12:32:00,72.2,69.0,29.98,WSW,240,2.0,7.0,89,0.00,,,0.01,weatherlink.com 1.10,2013-12-05 18:32:00,
2013-12-05 12:47:00,72.2,69.0,29.97,SE,130,4.0,5.0,88,0.00,,,0.01,weatherlink.com 1.10,2013-12-05 18:47:00,
2013-12-05 13:02:00,72.3,69.0,29.97,SSW,211,4.0,6.0,88,0.00,,,0.01,weatherlink.com 1.10,2013-12-05 19:02:00,
2013-12-05 13:17:00,71.8,69.0,29.97,SSE,158,4.0,8.0,89,0.00,,,0.01,weatherlink.com 1.10,2013-12-05 19:17:00,
2013-12-05 13:32:00,71.1,68.0,29.96,South,187,0.0,8.0,91,0.00,,,0.01,weatherlink.com 1.10,2013-12-05 19:32:00,
2013-12-05 13:47:00,70.6,68.0,29.96,South,174,0.0,8.0,92,0.00,,,0.01,weatherlink.com 1.10,2013-12-05 19:47:00,
2013-12-05 14:02:00,70.8,69.0,29.96,SSE,153,6.0,8.0,93,0.00,,,0.01,weatherlink.com 1.10,2013-12-05 20:02:00,
2013-12-05 14:17:00,70.8,69.0,29.96,South,169,1.0,9.0,93,0.00,,,0.01,weatherlink.com 1.10,2013-12-05 20:17:00,
2013-12-05 14:32:00,70.4,68.0,29.96,NNE,15,2.0,8.0,93,0.00,,,0.01,weatherlink.com 1.10,2013-12-05 20:32:00,
2013-12-05 14:47:00,70.0,68.0,29.96,SW,221,2.0,6.0,94,0.00,,,0.01,weatherlink.com 1.10,2013-12-05 20:47:00,
2013-12-05 15:02:00,69.0,67.0,29.97,SW,235,2.0,5.0,94,0.00,,,0.01,weatherlink.com 1.10,2013-12-05 21:02:00,
2013-12-05 15:33:00,69.0,68.0,29.97,SE,139,4.0,6.0,95,0.00,,,0.01,weatherlink.com 1.10,2013-12-05 21:33:00,
2013-12-05 15:47:00,68.7,67.0,29.97,SE,146,0.0,6.0,95,0.00,,,0.01,weatherlink.com 1.10,2013-12-05 21:47:00,
2013-12-05 16:03:00,68.3,67.0,29.97,South,179,1.0,4.0,96,0.00,,,0.01,weatherlink.com 1.10,2013-12-05 22:03:00,
2013-12-05 16:17:00,68.2,67.0,29.96,South,186,0.0,3.0,96,0.00,,,0.01,weatherlink.com 1.10,2013-12-05 22:17:00,
2013-12-05 16:32:00,67.7,67.0,29.98,SSE,155,0.0,2.0,96,0.00,,,0.01,weatherlink.com 1.10,2013-12-05 22:32:00,
2013-12-05 16:47:00,67.6,67.0,29.98,ESE,105,5.0,6.0,97,0.00,,,0.01,weatherlink.com 1.10,2013-12-05 22:47:00,
2013-12-05 17:02:00,67.5,67.0,29.98,SW,217,0.0,6.0,97,0.00,,,0.01,weatherlink.com 1.10,2013-12-05 23:02:00,
2013-12-05 17:17:00,67.2,66.0,29.98,SSE,155,1.0,7.0,97,0.00,,,0.01,weatherlink.com 1.10,2013-12-05 23:17:00,
2013-12-05 17:32:00,66.9,66.0,29.98,SE,141,2.0,4.0,98,0.00,,,0.01,weatherlink.com 1.10,2013-12-05 23:32:00,
2013-12-05 17:47:00,67.1,67.0,29.98,SE,131,1.0,5.0,98,0.00,,,0.01,weatherlink.com 1.10,2013-12-05 23:47:00,
2013-12-05 18:02:00,67.3,67.0,29.98,SSW,197,1.0,6.0,98,0.00,,,0.01,weatherlink.com 1.10,2013-12-06 00:02:00,
2013-12-05 18:17:00,67.4,67.0,29.98,SW,221,2.0,5.0,98,0.00,,,0.01,weatherlink.com 1.10,2013-12-06 00:17:00,
2013-12-05 18:32:00,67.3,67.0,29.98,SSW,210,0.0,8.0,98,0.00,,,0.01,weatherlink.com 1.10,2013-12-06 00:32:00,
2013-12-05 18:47:00,67.6,67.0,29.97,SE,124,0.0,10.0,99,0.00,,,0.01,weatherlink.com 1.10,2013-12-06 00:47:00,
2013-12-05 19:02:00,67.6,67.0,29.97,SSW,212,1.0,5.0,98,0.00,,,0.01,weatherlink.com 1.10,2013-12-06 01:02:00,
2013-12-05 19:33:00,67.4,67.0,29.98,SSW,205,2.0,8.0,98,0.00,,,0.01,weatherlink.com 1.10,2013-12-06 01:33:00,
2013-12-05 19:48:00,67.0,67.0,29.97,SSW,195,1.0,5.0,98,0.00,,,0.01,weatherlink.com 1.10,2013-12-06 01:48:00,
2013-12-05 20:03:00,67.0,67.0,29.98,SSW,208,2.0,5.0,99,0.00,,,0.01,weatherlink.com 1.10,2013-12-06 02:03:00,
2013-12-05 20:18:00,67.2,67.0,29.97,West,277,3.0,10.0,99,0.00,,,0.01,weatherlink.com 1.10,2013-12-06 02:18:00,
2013-12-05 20:33:00,67.5,67.0,29.97,WSW,250,1.0,7.0,99,0.00,,,0.01,weatherlink.com 1.10,2013-12-06 02:33:00,
2013-12-05 20:48:00,67.5,67.0,29.97,SSE,159,3.0,5.0,99,0.00,,,0.01,weatherlink.com 1.10,2013-12-06 02:48:00,
2013-12-05 21:03:00,67.6,67.0,29.97,ESE,107,1.0,5.0,98,0.00,,,0.01,weatherlink.com 1.10,2013-12-06 03:03:00,
2013-12-05 21:18:00,67.8,67.0,29.98,SW,217,3.0,5.0,98,0.00,,,0.01,weatherlink.com 1.10,2013-12-06 03:18:00,
2013-12-05 21:33:00,67.9,67.0,29.98,SSE,164,1.0,12.0,98,0.00,,,0.01,weatherlink.com 1.10,2013-12-06 03:33:00,
2013-12-05 21:48:00,68.0,68.0,29.99,SSW,211,3.0,4.0,98,0.00,,,0.01,weatherlink.com 1.10,2013-12-06 03:48:00,
2013-12-05 22:03:00,67.9,67.0,30.00,SW,220,2.0,3.0,98,0.00,,,0.01,weatherlink.com 1.10,2013-12-06 04:03:00,
2013-12-05 22:18:00,67.9,67.0,29.99,SSW,208,1.0,6.0,98,0.00,,,0.01,weatherlink.com 1.10,2013-12-06 04:18:00,
2013-12-05 22:33:00,67.8,67.0,29.99,WNW,297,0.0,5.0,98,0.00,,,0.01,weatherlink.com 1.10,2013-12-06 04:33:00,
2013-12-05 22:48:00,67.5,67.0,29.99,SW,236,3.0,4.0,98,0.00,,,0.01,weatherlink.com 1.10,2013-12-06 04:48:00,
2013-12-05 23:03:00,67.6,67.0,29.98,South,169,0.0,2.0,98,0.00,,,0.01,weatherlink.com 1.10,2013-12-06 05:03:00,
2013-12-05 23:18:00,67.6,67.0,29.99,SSE,164,0.0,2.0,98,0.00,,,0.01,weatherlink.com 1.10,2013-12-06 05:18:00,
2013-12-05 23:33:00,67.8,68.0,29.98,SE,143,0.0,4.0,99,0.00,,,0.01,weatherlink.com 1.10,2013-12-06 05:33:00,
2013-12-05 23:48:00,68.0,68.0,29.98,SW,231,2.0,6.0,98,0.00,,,0.01,weatherlink.com 1.10,2013-12-06 05:48:00,